Map

Track Data

SID SEASON NUMBER BASIN SUBBASIN NAME ISO_TIME NATURE LAT LON WMO_WIND WMO_PRES WMO_AGENCY TRACK_TYPE DIST2LAND LANDFALL IFLAG USA_AGENCY USA_ATCF_ID USA_LAT USA_LON USA_RECORD USA_STATUS USA_WIND USA_PRES USA_SSHS USA_R34_NE USA_R34_SE USA_R34_SW USA_R34_NW USA_R50_NE USA_R50_SE USA_R50_SW USA_R50_NW USA_R64_NE USA_R64_SE USA_R64_SW USA_R64_NW USA_POCI USA_ROCI USA_RMW USA_EYE TOKYO_LAT TOKYO_LON TOKYO_GRADE TOKYO_WIND TOKYO_PRES TOKYO_R50_DIR TOKYO_R50_LONG TOKYO_R50_SHORT TOKYO_R30_DIR TOKYO_R30_LONG TOKYO_R30_SHORT TOKYO_LAND CMA_LAT CMA_LON CMA_CAT CMA_WIND CMA_PRES HKO_LAT HKO_LON HKO_CAT HKO_WIND HKO_PRES NEWDELHI_LAT NEWDELHI_LON NEWDELHI_GRADE NEWDELHI_WIND NEWDELHI_PRES NEWDELHI_CI NEWDELHI_DP NEWDELHI_POCI REUNION_LAT REUNION_LON REUNION_TYPE REUNION_WIND REUNION_PRES REUNION_TNUM REUNION_CI REUNION_RMW REUNION_R34_NE REUNION_R34_SE REUNION_R34_SW REUNION_R34_NW REUNION_R50_NE REUNION_R50_SE REUNION_R50_SW REUNION_R50_NW REUNION_R64_NE REUNION_R64_SE REUNION_R64_SW REUNION_R64_NW BOM_LAT BOM_LON BOM_TYPE BOM_WIND BOM_PRES BOM_TNUM BOM_CI BOM_RMW BOM_R34_NE BOM_R34_SE BOM_R34_SW BOM_R34_NW BOM_R50_NE BOM_R50_SE BOM_R50_SW BOM_R50_NW BOM_R64_NE BOM_R64_SE BOM_R64_SW BOM_R64_NW BOM_ROCI BOM_POCI BOM_EYE BOM_POS_METHOD BOM_PRES_METHOD NADI_LAT NADI_LON NADI_CAT NADI_WIND NADI_PRES WELLINGTON_LAT WELLINGTON_LON WELLINGTON_WIND WELLINGTON_PRES DS824_LAT DS824_LON DS824_STAGE DS824_WIND DS824_PRES TD9636_LAT TD9636_LON TD9636_STAGE TD9636_WIND TD9636_PRES TD9635_LAT TD9635_LON TD9635_WIND TD9635_PRES TD9635_ROCI NEUMANN_LAT NEUMANN_LON NEUMANN_CLASS NEUMANN_WIND NEUMANN_PRES MLC_LAT MLC_LON MLC_CLASS MLC_WIND MLC_PRES USA_GUST BOM_GUST BOM_GUST_PER REUNION_GUST REUNION_GUST_PER USA_SEAHGT USA_SEARAD_NE USA_SEARAD_SE USA_SEARAD_SW USA_SEARAD_NW STORM_SPEED STORM_DIR
1991259N14258 1991 69 EP MM IGNACIO 1991-09-16 06:00:00 TS 14.1000 -102.200 25 1009 hurdat_epa main 377 320 O_____________ hurdat_epa EP111991 14.1000 -102.200 TD 25 1009 -1 10 11
1991259N14258 1991 69 EP MM IGNACIO 1991-09-16 09:00:00 TS 14.6050 -102.103 main 320 268 P_____________ EP111991 14.6050 -102.103 TD 27 1008 -1 10 6
1991259N14258 1991 69 EP MM IGNACIO 1991-09-16 12:00:00 TS 15.1000 -102.100 30 1008 hurdat_epa main 268 233 O_____________ hurdat_epa EP111991 15.1000 -102.100 TD 30 1008 -1 10 351
1991259N14258 1991 69 EP MM IGNACIO 1991-09-16 15:00:00 TS 15.5725 -102.255 main 229 208 P_____________ EP111991 15.5725 -102.255 TD 32 1006 -1 10 337
1991259N14258 1991 69 EP MM IGNACIO 1991-09-16 18:00:00 TS 16.0000 -102.500 35 1005 hurdat_epa main 208 173 O_____________ hurdat_epa EP111991 16.0000 -102.500 TS 35 1005 0 10 329
1991259N14258 1991 69 EP MM IGNACIO 1991-09-16 21:00:00 TS 16.3875 -102.757 main 176 151 P_____________ EP111991 16.3875 -102.757 TS 40 1002 0 9 326
1991259N14258 1991 69 EP MM IGNACIO 1991-09-17 00:00:00 TS 16.7000 -103.000 45 1000 hurdat_epa main 151 134 O_____________ hurdat_epa EP111991 16.7000 -103.000 TS 45 1000 0 7 323
1991259N14258 1991 69 EP MM IGNACIO 1991-09-17 03:00:00 TS 16.9225 -103.173 main 137 119 P_____________ EP111991 16.9225 -103.173 TS 47 998 0 5 324
1991259N14258 1991 69 EP MM IGNACIO 1991-09-17 06:00:00 TS 17.1000 -103.300 50 997 hurdat_epa main 119 102 O_____________ hurdat_epa EP111991 17.1000 -103.300 TS 50 997 0 5 327
1991259N14258 1991 69 EP MM IGNACIO 1991-09-17 09:00:00 TS 17.3150 -103.437 main 102 84 P_____________ EP111991 17.3150 -103.437 TS 52 995 0 4 335
1991259N14258 1991 69 EP MM IGNACIO 1991-09-17 12:00:00 TS 17.5000 -103.500 55 994 hurdat_epa main 84 70 O_____________ hurdat_epa EP111991 17.5000 -103.500 TS 55 994 0 3 0
1991259N14258 1991 69 EP MM IGNACIO 1991-09-17 15:00:00 TS 17.6300 -103.438 main 70 56 P_____________ EP111991 17.6300 -103.438 TS 55 994 0 3 44
1991259N14258 1991 69 EP MM IGNACIO 1991-09-17 18:00:00 TS 17.7000 -103.300 55 995 hurdat_epa main 56 54 O_____________ hurdat_epa EP111991 17.7000 -103.300 TS 55 995 0 3 70
1991259N14258 1991 69 EP MM IGNACIO 1991-09-17 21:00:00 TS 17.7300 -103.150 main 49 45 P_____________ EP111991 17.7300 -103.150 TS 52 996 0 3 90
1991259N14258 1991 69 EP MM IGNACIO 1991-09-18 00:00:00 TS 17.7000 -103.000 50 997 hurdat_epa main 45 44 O_____________ hurdat_epa EP111991 17.7000 -103.000 TS 50 997 0 3 113
1991259N14258 1991 69 EP MM IGNACIO 1991-09-18 03:00:00 TS 17.6225 -102.885 main 54 49 P_____________ EP111991 17.6225 -102.885 TS 47 998 0 3 136
1991259N14258 1991 69 EP MM IGNACIO 1991-09-18 06:00:00 TS 17.5000 -102.800 45 1000 hurdat_epa main 59 59 O_____________ hurdat_epa EP111991 17.5000 -102.800 TS 45 1000 0 3 152
1991259N14258 1991 69 EP MM IGNACIO 1991-09-18 09:00:00 TS 17.3650 -102.743 main 67 67 P_____________ EP111991 17.3650 -102.743 TS 42 1001 0 3 163
1991259N14258 1991 69 EP MM IGNACIO 1991-09-18 12:00:00 TS 17.2000 -102.700 40 1002 hurdat_epa main 89 89 O_____________ hurdat_epa EP111991 17.2000 -102.700 TS 40 1002 0 4 163
1991259N14258 1991 69 EP MM IGNACIO 1991-09-18 15:00:00 TS 17.0075 -102.635 main 105 105 P_____________ EP111991 17.0075 -102.635 TS 37 1003 0 4 167
1991259N14258 1991 69 EP MM IGNACIO 1991-09-18 18:00:00 TS 16.8000 -102.600 35 1004 hurdat_epa main 127 127 O_____________ hurdat_epa EP111991 16.8000 -102.600 TS 35 1004 0 4 0
1991259N14258 1991 69 EP MM IGNACIO 1991-09-18 21:00:00 TS 16.5935 -102.634 main 148 148 P_____________ EP111991 16.5925 -102.635 TS 30 1005 -1 4 193
1991259N14258 1991 69 EP MM IGNACIO 1991-09-19 00:00:00 TS 16.4000 -102.700 25 1006 hurdat_epa main 173 173 O_____________ hurdat_epa EP111991 16.4000 -102.700 TD 25 1006 -1 4 199
1991259N14258 1991 69 EP MM IGNACIO 1991-09-19 03:00:00 TS 16.2400 -102.755 main 197 197 P_____________ EP111991 16.2400 -102.755 TD 25 1006 -1 3 197
1991259N14258 1991 69 EP MM IGNACIO 1991-09-19 06:00:00 TS 16.1000 -102.800 25 1006 hurdat_epa main 208 O_____________ hurdat_epa EP111991 16.1000 -102.800 TD 25 1006 -1 3 199

About IBTrACS Database

This database is a web-friendly format of International Best Track Archive for Climate Stewardship (IBTrACS), a global best track data archive curated by NOAA dating back to 1842.

Updated: 2021-10-25